Terminal Aerodrome Forecast
Issued by NWS Sterling, VA

Home | Current Version | Previous Version | Text Only | Print | Product List | Glossary On
Versions: 1 2 3 4 5 6 7 8 9 10 11 12 13 14 15 16 17 18 19 20 21
000
FTUS41 KLWX 020856 AAA
TAFDCA
TAF AMD
KDCA 020856Z 0209/0306 33003KT P6SM FEW070 SCT250
     FM021500 35005KT P6SM SCT070 BKN250
     FM022300 27007KT P6SM BKN060 BKN080=

USA.gov is the U.S. government's official web portal to all federal, state and local government web resources and services.